This is the latest recevied weather packets stored in our database for station/object VE6EN. If no packets are shown the sender has not sent any weather packets the latest 10 day(s).
| Time | Temp. | Humidity | Pressure | Rain* | Wind** | Luminosity | Snow |
|---|---|---|---|---|---|---|---|
| 1787676006 | 19.44° C | 58% | 1023 hPa | 0 mm | - | - | - |
| 1787673606 | 17.78° C | 63% | 1023.1 hPa | 0 mm | - | - | - |
| 1787672428 | 16.11° C | 67% | 1023.2 hPa | 0 mm | - | - | - |
| 1787671805 | 15.56° C | 68% | 1023.2 hPa | 0 mm | - | - | - |
| 1787671208 | 15° C | 70% | 1023.2 hPa | 0 mm | - | - | - |
| 1787670608 | 14.44° C | 71% | 1023.2 hPa | 0 mm | - | - | - |
| 1787670074 | 13.89° C | 75% | 1023.2 hPa | 0 mm | - | - | - |
| 1787667009 | 9.44° C | 90% | 1023.1 hPa | 0 mm | - | - | - |
| 1787665805 | 8.89° C | 91% | 1023 hPa | 0 mm | - | - | - |
| 1787661006 | 8.89° C | 89% | 1022.7 hPa | 0 mm | - | - | - |
| 1787660405 | 8.89° C | 89% | 1022.7 hPa | 0 mm | - | - | - |
| 1787659812 | 8.89° C | 89% | 1022.7 hPa | 0 mm | - | - | - |
| 1787659205 | 8.89° C | 88% | 1022.7 hPa | 0 mm | - | - | - |
| 1787658604 | 8.89° C | 88% | 1022.7 hPa | 0 mm | - | - | - |
| 1787658003 | 8.89° C | 88% | 1022.6 hPa | 0 mm | - | - | - |
| 1787657406 | 9.44° C | 88% | 1022.6 hPa | 0 mm | - | - | - |
| 1787656803 | 9.44° C | 88% | 1022.7 hPa | 0 mm | - | - | - |
| 1787656204 | 9.44° C | 87% | 1022.7 hPa | 0 mm | - | - | - |
| 1787655605 | 9.44° C | 87% | 1022.7 hPa | 0 mm | - | - | - |
| 1787655002 | 9.44° C | 87% | 1022.7 hPa | 0 mm | - | - | - |
| 1787654409 | 10° C | 87% | 1022.6 hPa | 0 mm | - | - | - |
| 1787653803 | 10° C | 87% | 1022.6 hPa | 0 mm | - | - | - |
| 1787653205 | 10° C | 87% | 1022.6 hPa | 0 mm | - | - | - |
| 1787652614 | 10° C | 86% | 1022.7 hPa | 0 mm | - | - | - |
| 1787652003 | 10° C | 86% | 1022.7 hPa | 0 mm | - | - | - |
* Rain latest hour (hover to see other rain measurements)
** Current wind speed in m/s (hover to see current wind gust speed)